createdAt,value
2023-06-04T00:02:15.010Z,93.00
2023-06-04T00:04:42.139Z,92.60
2023-06-04T00:07:09.194Z,92.90
2023-06-04T00:09:36.274Z,92.90
2023-06-04T00:12:03.350Z,92.90
2023-06-04T00:14:30.369Z,93.20
2023-06-04T00:16:57.425Z,93.10
2023-06-04T00:19:24.460Z,93.20
2023-06-04T00:21:51.479Z,93.30
2023-06-04T00:24:18.535Z,93.60
2023-06-04T00:26:45.966Z,93.30
2023-06-04T00:29:13.013Z,93.20
2023-06-04T00:31:40.190Z,93.10
2023-06-04T00:34:07.263Z,93.10
2023-06-04T00:36:34.326Z,91.80
2023-06-04T00:39:01.598Z,91.70
2023-06-04T00:41:28.644Z,92.10
2023-06-04T00:43:59.091Z,91.80
2023-06-04T00:46:26.631Z,91.70
2023-06-04T00:48:54.009Z,92.10
2023-06-04T00:51:24.164Z,92.20
2023-06-04T00:53:51.200Z,92.30
2023-06-04T00:56:18.527Z,92.30
2023-06-04T00:58:46.300Z,92.20
2023-06-04T01:01:16.641Z,92.20
2023-06-04T01:03:43.886Z,92.10
2023-06-04T01:06:14.166Z,91.90
2023-06-04T01:08:43.796Z,91.90
2023-06-04T01:11:10.881Z,91.90
2023-06-04T01:13:38.088Z,91.90
2023-06-04T01:16:05.440Z,91.90
2023-06-04T01:18:34.031Z,91.90
2023-06-04T01:21:10.935Z,92.00
2023-06-04T01:23:47.995Z,92.00
2023-06-04T01:26:15.167Z,92.00
2023-06-04T01:28:42.217Z,92.10
2023-06-04T01:31:09.730Z,92.10
2023-06-04T01:33:37.099Z,92.20
2023-06-04T01:36:04.330Z,92.20
2023-06-04T01:38:31.351Z,92.20
2023-06-04T01:41:02.099Z,92.20
2023-06-04T01:43:29.604Z,92.30
2023-06-04T01:45:57.658Z,92.30
2023-06-04T01:48:24.822Z,92.30
2023-06-04T01:50:51.845Z,92.20
2023-06-04T01:53:19.112Z,92.40
2023-06-04T01:55:46.190Z,92.40
2023-06-04T01:58:13.266Z,92.30
2023-06-04T02:00:40.817Z,92.30
2023-06-04T02:03:09.791Z,92.30
2023-06-04T02:05:37.837Z,92.30
2023-06-04T02:08:05.767Z,92.30
2023-06-04T02:10:32.855Z,92.30
2023-06-04T02:13:06.086Z,92.30
2023-06-04T02:15:33.280Z,92.30
2023-06-04T02:18:03.911Z,92.30
2023-06-04T02:20:31.057Z,92.30
2023-06-04T02:22:58.143Z,92.30
2023-06-04T02:25:27.139Z,92.30
2023-06-04T02:27:54.159Z,92.30
2023-06-04T02:30:21.190Z,92.30
2023-06-04T02:32:52.907Z,92.30
2023-06-04T02:35:22.036Z,92.30
2023-06-04T02:37:49.701Z,92.30
2023-06-04T02:40:16.832Z,92.30
2023-06-04T02:42:43.912Z,92.30
2023-06-04T02:45:11.255Z,92.40
2023-06-04T02:47:38.440Z,92.50
2023-06-04T02:50:05.851Z,92.60
2023-06-04T02:52:34.024Z,92.70
2023-06-04T02:55:04.831Z,92.70
2023-06-04T02:57:31.900Z,92.60
2023-06-04T02:59:59.754Z,92.60
2023-06-04T03:02:26.896Z,92.80
2023-06-04T03:04:55.989Z,92.60
2023-06-04T03:07:23.688Z,92.70
2023-06-04T03:09:50.781Z,92.80
2023-06-04T03:12:17.813Z,92.90
2023-06-04T03:14:44.822Z,92.90
2023-06-04T03:17:11.973Z,92.90
2023-06-04T03:19:39.047Z,93.00
2023-06-04T03:22:06.809Z,93.00
2023-06-04T03:24:37.799Z,93.00
2023-06-04T03:27:05.104Z,93.50
2023-06-04T03:29:33.089Z,93.20
2023-06-04T03:32:02.678Z,93.50
2023-06-04T03:34:35.195Z,93.60
2023-06-04T03:37:02.765Z,93.60
2023-06-04T03:39:29.903Z,93.60
2023-06-04T03:41:57.965Z,93.70
2023-06-04T03:44:25.758Z,93.90
2023-06-04T03:46:53.842Z,94.20
2023-06-04T03:49:21.174Z,94.40
2023-06-04T03:51:49.070Z,94.60
2023-06-04T03:54:19.606Z,94.70
2023-06-04T03:56:48.603Z,94.70
2023-06-04T03:59:15.884Z,94.90
2023-06-04T04:01:43.314Z,95.00
2023-06-04T04:04:10.755Z,95.20
2023-06-04T04:06:38.098Z,95.40
2023-06-04T04:09:06.914Z,95.60
2023-06-04T04:11:35.797Z,95.60
2023-06-04T04:14:03.540Z,95.50
2023-06-04T04:16:30.964Z,95.60
2023-06-04T04:18:58.694Z,95.70
2023-06-04T04:21:26.457Z,95.80
2023-06-04T04:23:53.696Z,95.90
2023-06-04T04:26:21.013Z,95.90
2023-06-04T04:28:53.349Z,96.20
2023-06-04T04:31:23.465Z,96.00
2023-06-04T04:33:52.244Z,96.10
2023-06-04T04:36:20.942Z,96.10
2023-06-04T04:38:55.090Z,96.10
2023-06-04T04:41:25.141Z,96.40
2023-06-04T04:43:53.253Z,96.40
2023-06-04T04:46:24.709Z,96.00
2023-06-04T04:48:52.705Z,95.90
2023-06-04T04:51:19.758Z,95.90
2023-06-04T04:53:46.829Z,95.90
2023-06-04T04:56:14.304Z,96.20
2023-06-04T04:58:45.640Z,95.90
2023-06-04T05:01:12.892Z,96.00
2023-06-04T05:03:41.712Z,96.00
2023-06-04T05:06:11.046Z,96.10
2023-06-04T05:08:38.167Z,96.30
2023-06-04T05:11:05.628Z,96.20
2023-06-04T05:13:32.977Z,96.50
2023-06-04T05:16:08.004Z,96.30
2023-06-04T05:18:41.451Z,96.20
2023-06-04T05:21:12.402Z,96.00
2023-06-04T05:23:45.254Z,95.80
2023-06-04T05:26:12.665Z,95.40
2023-06-04T05:28:44.529Z,95.10
2023-06-04T05:31:14.227Z,94.80
2023-06-04T05:33:41.679Z,94.40
2023-06-04T05:36:13.990Z,93.60
2023-06-04T05:38:47.864Z,93.60
2023-06-04T05:41:17.668Z,93.90
2023-06-04T05:43:45.576Z,93.40
2023-06-04T05:46:14.763Z,93.10
2023-06-04T05:48:42.714Z,93.00
2023-06-04T05:51:09.779Z,92.80
2023-06-04T05:53:38.980Z,92.60
2023-06-04T05:56:06.054Z,92.90
2023-06-04T05:58:34.060Z,92.70
2023-06-04T06:01:01.349Z,92.40
2023-06-04T06:03:28.803Z,92.30
2023-06-04T06:05:58.237Z,92.70
2023-06-04T06:08:25.612Z,92.60
2023-06-04T06:10:53.007Z,92.40
2023-06-04T06:13:20.250Z,92.30
2023-06-04T06:15:48.083Z,91.90
2023-06-04T06:18:15.164Z,92.10
2023-06-04T06:20:42.828Z,91.90
2023-06-04T06:23:10.369Z,91.80
2023-06-04T06:25:46.780Z,92.20
2023-06-04T06:28:22.307Z,91.80
2023-06-04T06:30:50.114Z,91.80
2023-06-04T06:33:17.245Z,92.10
2023-06-04T06:35:47.348Z,92.20
2023-06-04T06:38:16.379Z,91.70
2023-06-04T06:40:44.888Z,92.30
2023-06-04T06:43:11.961Z,92.30
2023-06-04T06:45:39.000Z,91.90
2023-06-04T06:48:06.168Z,91.00
2023-06-04T06:50:36.442Z,90.90
2023-06-04T06:53:03.837Z,91.20
2023-06-04T06:55:30.972Z,91.10
2023-06-04T06:57:57.981Z,91.10
2023-06-04T07:00:25.094Z,91.40
2023-06-04T07:02:52.384Z,90.50
2023-06-04T07:05:19.517Z,90.20
2023-06-04T07:07:47.395Z,90.20
2023-06-04T07:10:14.559Z,90.10
2023-06-04T07:12:43.683Z,90.30
2023-06-04T07:15:10.934Z,90.30
2023-06-04T07:17:38.056Z,90.90
2023-06-04T07:20:07.857Z,90.30
2023-06-04T07:22:35.187Z,90.20
2023-06-04T07:25:02.304Z,88.80
2023-06-04T07:27:29.376Z,89.90
2023-06-04T07:29:56.414Z,89.00
2023-06-04T07:32:25.422Z,89.20
2023-06-04T07:34:52.499Z,89.30
2023-06-04T07:37:19.519Z,88.50
2023-06-04T07:39:46.539Z,89.20
2023-06-04T07:42:14.202Z,90.00
2023-06-04T07:44:41.270Z,89.00
2023-06-04T07:47:08.356Z,88.90
2023-06-04T07:49:35.430Z,88.50
2023-06-04T07:52:02.807Z,90.10
2023-06-04T07:54:29.865Z,89.70
2023-06-04T07:56:57.179Z,88.10
2023-06-04T07:59:24.578Z,88.70
2023-06-04T08:01:52.510Z,88.50
2023-06-04T08:04:19.894Z,87.90
2023-06-04T08:06:47.612Z,87.80
2023-06-04T08:09:14.758Z,87.80
2023-06-04T08:11:42.934Z,87.90
2023-06-04T08:14:10.642Z,88.90
2023-06-04T08:16:37.683Z,87.90
2023-06-04T08:19:04.849Z,86.30
2023-06-04T08:21:31.950Z,86.10
2023-06-04T08:24:00.280Z,87.70
2023-06-04T08:26:31.595Z,87.50
2023-06-04T08:28:58.676Z,87.40
2023-06-04T08:31:25.770Z,86.00
2023-06-04T08:33:52.984Z,84.80
2023-06-04T08:36:20.014Z,83.70
2023-06-04T08:38:52.756Z,83.50
2023-06-04T08:41:29.116Z,83.60
2023-06-04T08:43:58.430Z,84.60
2023-06-04T08:46:27.113Z,84.00
2023-06-04T08:48:54.298Z,83.20
2023-06-04T08:51:21.346Z,83.40
2023-06-04T08:53:51.176Z,81.90
2023-06-04T08:56:18.417Z,82.80
2023-06-04T08:58:45.512Z,81.80
2023-06-04T09:01:12.693Z,80.70
2023-06-04T09:03:39.974Z,79.80
2023-06-04T09:06:07.051Z,80.80
2023-06-04T09:08:36.629Z,83.10
2023-06-04T09:11:07.403Z,81.50
2023-06-04T09:13:34.689Z,79.60
2023-06-04T09:16:02.356Z,80.50
2023-06-04T09:18:29.468Z,81.00
2023-06-04T09:21:07.057Z,79.00
2023-06-04T09:23:49.796Z,81.10
2023-06-04T09:26:16.982Z,79.20
2023-06-04T09:28:44.691Z,79.00
2023-06-04T09:31:15.162Z,78.20
2023-06-04T09:33:50.652Z,79.20
2023-06-04T09:36:17.747Z,78.70
2023-06-04T09:38:44.967Z,79.10
2023-06-04T09:41:15.890Z,78.90
2023-06-04T09:43:44.601Z,79.10
2023-06-04T09:46:12.186Z,78.40
2023-06-04T09:48:39.795Z,76.50
2023-06-04T09:51:10.419Z,77.50
2023-06-04T09:53:37.772Z,76.40
2023-06-04T09:56:05.421Z,76.60
2023-06-04T09:58:32.471Z,76.10
2023-06-04T10:01:00.191Z,75.80
2023-06-04T10:03:28.855Z,76.80
2023-06-04T10:05:56.712Z,77.30
2023-06-04T10:08:24.616Z,75.30
2023-06-04T10:10:53.309Z,73.40
2023-06-04T10:13:20.566Z,73.90
2023-06-04T10:15:47.746Z,74.00
2023-06-04T10:18:15.006Z,73.90
2023-06-04T10:20:42.326Z,73.60
2023-06-04T10:23:09.444Z,73.60
2023-06-04T10:25:36.604Z,72.80
2023-06-04T10:28:03.880Z,73.90
2023-06-04T10:30:31.381Z,73.00
2023-06-04T10:32:58.735Z,72.30
2023-06-04T10:35:35.017Z,71.80
2023-06-04T10:38:12.036Z,69.20
2023-06-04T10:40:39.264Z,68.80
2023-06-04T10:43:06.797Z,68.60
2023-06-04T10:45:33.834Z,67.30
2023-06-04T10:48:01.421Z,68.60
2023-06-04T10:50:28.558Z,66.60
2023-06-04T10:52:56.276Z,67.70
2023-06-04T10:55:23.358Z,69.70
2023-06-04T10:57:54.183Z,70.10
2023-06-04T11:00:21.523Z,70.20
2023-06-04T11:02:57.742Z,68.50
2023-06-04T11:05:34.603Z,68.50
2023-06-04T11:08:01.774Z,68.00
2023-06-04T11:10:35.832Z,66.20
2023-06-04T11:13:04.376Z,69.00
2023-06-04T11:15:42.658Z,69.30
2023-06-04T11:18:14.323Z,69.40
2023-06-04T11:20:41.486Z,68.60
2023-06-04T11:23:08.523Z,67.50
2023-06-04T11:25:35.568Z,66.70
2023-06-04T11:28:02.713Z,66.60
2023-06-04T11:30:29.862Z,66.60
2023-06-04T11:33:03.898Z,67.60
2023-06-04T11:35:31.245Z,67.80
2023-06-04T11:37:58.980Z,67.90
2023-06-04T11:40:27.837Z,67.00
2023-06-04T11:42:55.005Z,66.40
2023-06-04T11:45:22.565Z,68.00
2023-06-04T11:47:50.393Z,65.70
2023-06-04T11:50:17.673Z,66.60
2023-06-04T11:52:44.804Z,68.20
2023-06-04T11:55:12.292Z,65.80
2023-06-04T11:57:39.599Z,63.10
2023-06-04T12:00:10.490Z,64.20
2023-06-04T12:02:38.051Z,65.50
2023-06-04T12:05:12.034Z,66.60
2023-06-04T12:07:39.048Z,67.00
2023-06-04T12:10:06.573Z,65.50
2023-06-04T12:12:33.605Z,64.60
2023-06-04T12:15:00.797Z,65.70
2023-06-04T12:17:27.883Z,62.40
2023-06-04T12:19:55.762Z,63.70
2023-06-04T12:22:22.796Z,64.00
2023-06-04T12:24:50.604Z,63.80
2023-06-04T12:27:17.679Z,64.60
2023-06-04T12:29:54.914Z,62.80
2023-06-04T12:32:22.020Z,62.90
2023-06-04T12:34:49.266Z,63.30
2023-06-04T12:37:16.276Z,61.70
2023-06-04T12:39:43.919Z,61.30
2023-06-04T12:42:10.988Z,61.50
2023-06-04T12:44:41.320Z,60.60
2023-06-04T12:47:08.741Z,60.30
2023-06-04T12:49:35.954Z,59.90
2023-06-04T12:52:03.036Z,61.10
2023-06-04T12:54:30.160Z,59.90
2023-06-04T12:56:57.567Z,59.90
2023-06-04T12:59:26.401Z,60.30
2023-06-04T13:01:53.792Z,58.40
2023-06-04T13:04:21.479Z,59.60
2023-06-04T13:06:48.580Z,60.10
2023-06-04T13:09:15.897Z,61.10
2023-06-04T13:11:43.301Z,61.70
2023-06-04T13:14:10.612Z,61.50
2023-06-04T13:16:40.887Z,63.10
2023-06-04T13:19:08.133Z,63.20
2023-06-04T13:21:35.988Z,63.40
2023-06-04T13:24:03.289Z,63.90
2023-06-04T13:26:30.508Z,62.60
2023-06-04T13:28:57.526Z,63.70
2023-06-04T13:31:24.557Z,64.60
2023-06-04T13:33:51.605Z,65.00
2023-06-04T13:36:18.617Z,65.60
2023-06-04T13:38:45.721Z,63.10
2023-06-04T13:41:12.799Z,63.80
2023-06-04T13:43:40.019Z,62.60
2023-06-04T13:46:07.268Z,61.20
2023-06-04T13:48:34.428Z,61.70
2023-06-04T13:51:01.530Z,61.10
2023-06-04T13:53:28.559Z,60.10
2023-06-04T13:55:59.076Z,59.90
2023-06-04T13:58:26.497Z,60.60
2023-06-04T14:00:53.782Z,61.10
2023-06-04T14:03:21.021Z,60.50
2023-06-04T14:05:48.258Z,60.70
2023-06-04T14:08:15.332Z,61.70
2023-06-04T14:10:43.626Z,62.70
2023-06-04T14:13:10.688Z,60.90
2023-06-04T14:15:38.672Z,60.90
2023-06-04T14:18:06.167Z,60.50
2023-06-04T14:20:33.255Z,60.20
2023-06-04T14:23:00.901Z,60.20
2023-06-04T14:25:28.522Z,60.00
2023-06-04T14:27:55.557Z,60.70
2023-06-04T14:30:22.749Z,62.00
2023-06-04T14:32:49.849Z,60.10
2023-06-04T14:35:16.918Z,61.00
2023-06-04T14:37:44.029Z,61.20
2023-06-04T14:40:11.308Z,60.80
2023-06-04T14:42:38.334Z,61.10
2023-06-04T14:45:05.756Z,60.10
2023-06-04T14:47:32.790Z,61.50
2023-06-04T14:49:59.864Z,63.10
2023-06-04T14:52:28.877Z,62.60
2023-06-04T14:54:56.039Z,62.30
2023-06-04T14:57:23.118Z,64.40
2023-06-04T14:59:50.273Z,63.60
2023-06-04T15:02:20.466Z,64.00
2023-06-04T15:04:48.021Z,64.00
2023-06-04T15:07:15.127Z,62.00
2023-06-04T15:09:42.155Z,61.40
2023-06-04T15:12:09.273Z,61.40
2023-06-04T15:14:36.312Z,61.90
2023-06-04T15:17:03.407Z,62.00
2023-06-04T15:19:30.507Z,61.30
2023-06-04T15:21:57.513Z,61.80
2023-06-04T15:24:24.594Z,62.30
2023-06-04T15:26:51.637Z,62.50
2023-06-04T15:29:18.672Z,61.90
2023-06-04T15:31:47.180Z,60.50
2023-06-04T15:34:14.215Z,60.40
2023-06-04T15:36:41.310Z,60.80
2023-06-04T15:39:08.396Z,61.30
2023-06-04T15:41:35.531Z,61.20
2023-06-04T15:44:03.542Z,60.90
2023-06-04T15:46:30.972Z,60.70
2023-06-04T15:48:58.150Z,60.70
2023-06-04T15:51:25.223Z,61.50
2023-06-04T15:53:52.366Z,62.40
2023-06-04T15:56:19.953Z,62.30
2023-06-04T15:58:47.087Z,62.00
2023-06-04T16:01:14.218Z,62.60
2023-06-04T16:03:41.432Z,62.20
2023-06-04T16:06:08.948Z,61.60
2023-06-04T16:08:36.269Z,61.40
2023-06-04T16:11:03.304Z,62.10
2023-06-04T16:13:30.636Z,61.60
2023-06-04T16:15:58.321Z,60.10
2023-06-04T16:18:25.529Z,60.10
2023-06-04T16:20:52.555Z,61.20
2023-06-04T16:23:19.884Z,60.50
2023-06-04T16:25:47.040Z,61.60
2023-06-04T16:28:14.202Z,62.40
2023-06-04T16:30:41.299Z,63.40
2023-06-04T16:33:08.408Z,61.50
2023-06-04T16:35:35.446Z,61.70
2023-06-04T16:38:04.291Z,61.10
2023-06-04T16:40:31.505Z,60.80
2023-06-04T16:42:58.540Z,61.10
2023-06-04T16:45:25.583Z,61.70
2023-06-04T16:47:52.622Z,62.60
2023-06-04T16:50:19.905Z,62.70
2023-06-04T16:52:46.943Z,61.90
2023-06-04T16:55:14.937Z,62.40
2023-06-04T16:57:41.955Z,60.30
2023-06-04T17:00:24.771Z,60.40
2023-06-04T17:02:54.949Z,60.70
2023-06-04T17:05:25.308Z,60.50
2023-06-04T17:07:53.329Z,60.20
2023-06-04T17:10:20.928Z,60.10
2023-06-04T17:12:48.247Z,59.80
2023-06-04T17:15:15.520Z,60.20
2023-06-04T17:17:42.641Z,60.80
2023-06-04T17:20:09.921Z,60.50
2023-06-04T17:22:38.980Z,60.30
2023-06-04T17:25:06.418Z,61.10
2023-06-04T17:27:33.568Z,61.10
2023-06-04T17:30:00.968Z,61.00
2023-06-04T17:32:28.081Z,61.80
2023-06-04T17:34:55.243Z,60.60
2023-06-04T17:37:22.311Z,59.90
2023-06-04T17:39:49.340Z,60.70
2023-06-04T17:42:16.401Z,60.80
2023-06-04T17:44:43.435Z,61.80
2023-06-04T17:47:10.608Z,61.30
2023-06-04T17:49:37.638Z,60.90
2023-06-04T17:52:04.803Z,62.30
2023-06-04T17:54:31.950Z,62.30
2023-06-04T17:56:58.962Z,62.20
2023-06-04T17:59:26.060Z,60.70
2023-06-04T18:01:53.132Z,60.60
2023-06-04T18:04:20.284Z,60.60
2023-06-04T18:06:47.407Z,60.10
2023-06-04T18:09:14.428Z,60.20
2023-06-04T18:11:41.488Z,60.40
2023-06-04T18:14:08.528Z,61.00
2023-06-04T18:16:35.620Z,61.40
2023-06-04T18:19:02.669Z,62.30
2023-06-04T18:21:29.701Z,62.50
2023-06-04T18:23:57.763Z,63.40
2023-06-04T18:26:25.049Z,62.00
2023-06-04T18:28:52.311Z,63.20
2023-06-04T18:31:19.432Z,64.00
2023-06-04T18:33:53.015Z,63.40
2023-06-04T18:36:20.442Z,63.90
2023-06-04T18:38:47.488Z,64.00
2023-06-04T18:41:16.020Z,64.90
2023-06-04T18:43:43.188Z,64.20
2023-06-04T18:46:10.622Z,64.40
2023-06-04T18:48:37.929Z,64.90
2023-06-04T18:51:04.989Z,65.10
2023-06-04T18:53:32.023Z,64.40
2023-06-04T18:55:59.046Z,64.30
2023-06-04T18:58:26.153Z,65.50
2023-06-04T19:00:53.307Z,64.80
2023-06-04T19:03:20.749Z,64.50
2023-06-04T19:05:51.421Z,65.00
2023-06-04T19:08:18.538Z,65.20
2023-06-04T19:10:52.415Z,65.50
2023-06-04T19:13:19.768Z,66.00
2023-06-04T19:15:46.852Z,66.00
2023-06-04T19:18:13.909Z,66.20
2023-06-04T19:20:40.953Z,66.40
2023-06-04T19:23:07.978Z,66.70
2023-06-04T19:25:35.011Z,66.70
2023-06-04T19:28:02.985Z,66.70
2023-06-04T19:30:30.070Z,66.90
2023-06-04T19:32:57.281Z,67.20
2023-06-04T19:35:24.480Z,67.30
2023-06-04T19:37:51.542Z,67.40
2023-06-04T19:40:18.879Z,67.30
2023-06-04T19:42:46.093Z,67.90
2023-06-04T19:45:13.162Z,68.00
2023-06-04T19:47:40.282Z,68.10
2023-06-04T19:50:07.477Z,68.20
2023-06-04T19:52:34.540Z,68.30
2023-06-04T19:55:01.566Z,68.40
2023-06-04T19:57:29.162Z,68.40
2023-06-04T19:59:56.211Z,68.20
2023-06-04T20:02:23.277Z,68.60
2023-06-04T20:04:53.340Z,68.70
2023-06-04T20:07:20.991Z,69.00
2023-06-04T20:09:48.156Z,69.00
2023-06-04T20:12:17.125Z,69.00
2023-06-04T20:14:44.264Z,69.10
2023-06-04T20:17:11.361Z,69.30
2023-06-04T20:19:38.452Z,69.90
2023-06-04T20:22:05.968Z,70.00
2023-06-04T20:24:33.006Z,70.10
2023-06-04T20:27:00.085Z,70.00
2023-06-04T20:29:28.357Z,70.10
2023-06-04T20:31:55.411Z,70.90
2023-06-04T20:34:23.384Z,70.30
2023-06-04T20:36:53.473Z,70.30
2023-06-04T20:39:21.288Z,70.40
2023-06-04T20:41:48.370Z,70.70
2023-06-04T20:44:17.137Z,70.80
2023-06-04T20:46:44.209Z,70.70
2023-06-04T20:49:11.528Z,70.30
2023-06-04T20:51:38.589Z,70.40
2023-06-04T20:54:05.668Z,70.70
2023-06-04T20:56:32.766Z,71.60
2023-06-04T20:58:59.795Z,71.10
2023-06-04T21:01:26.945Z,71.10
2023-06-04T21:03:54.175Z,70.70
2023-06-04T21:06:21.255Z,70.60
2023-06-04T21:08:48.324Z,70.70
2023-06-04T21:11:15.404Z,71.50
2023-06-04T21:13:42.421Z,71.80
2023-06-04T21:16:09.518Z,71.70
2023-06-04T21:18:36.890Z,71.80
2023-06-04T21:21:03.968Z,71.90
2023-06-04T21:23:31.016Z,71.70
2023-06-04T21:25:58.062Z,71.70
2023-06-04T21:28:25.334Z,71.60
2023-06-04T21:30:52.374Z,72.10
2023-06-04T21:33:19.372Z,72.20
2023-06-04T21:35:46.450Z,72.20
2023-06-04T21:38:13.463Z,72.60
2023-06-04T21:40:40.473Z,72.90
2023-06-04T21:43:07.474Z,73.10
2023-06-04T21:45:35.058Z,73.40
2023-06-04T21:48:02.854Z,73.50
2023-06-04T21:50:29.896Z,73.80
2023-06-04T21:52:56.986Z,74.00
2023-06-04T21:55:25.018Z,74.20
2023-06-04T21:57:52.470Z,74.50
2023-06-04T22:00:20.116Z,74.50
2023-06-04T22:02:47.261Z,74.70
2023-06-04T22:05:14.375Z,75.00
2023-06-04T22:07:41.378Z,75.20
2023-06-04T22:10:08.696Z,75.50
2023-06-04T22:12:35.801Z,75.60
2023-06-04T22:15:02.878Z,75.70
2023-06-04T22:17:29.936Z,75.70
2023-06-04T22:19:56.995Z,75.80
2023-06-04T22:22:24.090Z,76.10
2023-06-04T22:24:51.116Z,76.40
2023-06-04T22:27:18.300Z,76.70
2023-06-04T22:29:45.412Z,76.90
2023-06-04T22:32:12.452Z,77.40
2023-06-04T22:34:39.505Z,77.50
2023-06-04T22:37:07.065Z,77.60
2023-06-04T22:39:34.191Z,78.70
2023-06-04T22:42:01.260Z,78.40
2023-06-04T22:44:28.430Z,78.80
2023-06-04T22:46:55.521Z,79.10
2023-06-04T22:49:22.663Z,79.70
2023-06-04T22:51:49.800Z,80.40
2023-06-04T22:54:16.934Z,80.70
2023-06-04T22:56:43.955Z,80.90
2023-06-04T22:59:12.377Z,81.30
2023-06-04T23:01:40.312Z,81.60
2023-06-04T23:04:07.607Z,82.10
2023-06-04T23:06:34.891Z,82.20
2023-06-04T23:09:01.926Z,82.50
2023-06-04T23:11:29.047Z,82.70
2023-06-04T23:13:56.173Z,83.10
2023-06-04T23:16:23.207Z,83.60
2023-06-04T23:18:50.576Z,84.00
2023-06-04T23:21:17.603Z,83.80
2023-06-04T23:23:44.733Z,83.80
2023-06-04T23:26:11.749Z,83.50
2023-06-04T23:28:38.817Z,83.60
2023-06-04T23:31:05.931Z,83.90
2023-06-04T23:33:33.069Z,84.00
2023-06-04T23:36:00.121Z,84.60
2023-06-04T23:38:27.245Z,84.60
2023-06-04T23:40:54.246Z,84.70
2023-06-04T23:43:21.471Z,84.70
2023-06-04T23:45:48.746Z,85.10
2023-06-04T23:48:16.850Z,85.40
2023-06-04T23:50:43.879Z,85.70
2023-06-04T23:53:10.977Z,85.90
2023-06-04T23:55:39.685Z,86.00
2023-06-04T23:58:06.857Z,86.90
